PROFILE

 METAR AND TAF INFORMATION
ADDS - METARS form results

(1316 UTC 26 March 2019)
http://aviationweather.gov/metar/data/
 
LPPR 261300Z 10013KT 060V130 CAVOK 21/02 Q1016
LPPR 261230Z 11015KT CAVOK 20/03 Q1016
TAF LPPR 261100Z 2612/2712 09015KT CAVOK PROB30 TEMPO 2612/2615 08018G28KT BECMG 2615/2618 08008KT PROB30 2615/2620 32008KT BECMG 2621/2624 09015KT PROB30 TEMPO 2700/2706 09017G27KT 

 AIRPORT MAP

 RUNWAY INFORMATION
Runway 17 Runway length 11417 ft Runway width 148 ft
Runway elevation 151 ft Runway displaced threshold 984 ft Runway heading 169
Runway 35 Runway length 11417 ft Runway width 148 ft
Runway elevation 226 ft Runway displaced threshold 492 ft Runway heading 349

 AIRPORT FREQUENCIES
Type APP Name APP Frequency 121.1 MHZ
Type ATIS Name ATIS Frequency 124.3 MHZ
Type TWR Name TWR Frequency 118 MHZ

 AIRPORT NEAR NAVIGATION AIDS
Type NDB Name Porto Frequency 367 KHZ
Type NDB Name Porto Frequency 327 KHZ
Type VOR-DME Name Porto Frequency 114100 KHZ